createdAt,value
2023-04-24T00:00:33.378Z,0.90
2023-04-24T00:03:00.025Z,0.93
2023-04-24T00:05:26.513Z,0.90
2023-04-24T00:07:56.287Z,0.90
2023-04-24T00:10:22.641Z,1.05
2023-04-24T00:12:49.028Z,0.90
2023-04-24T00:15:15.387Z,1.20
2023-04-24T00:17:41.936Z,1.20
2023-04-24T00:20:08.715Z,1.10
2023-04-24T00:22:35.083Z,0.98
2023-04-24T00:25:01.459Z,1.63
2023-04-24T00:27:27.828Z,0.90
2023-04-24T00:29:54.192Z,1.20
2023-04-24T00:32:20.665Z,1.00
2023-04-24T00:34:47.113Z,0.93
2023-04-24T00:37:13.487Z,1.00
2023-04-24T00:39:40.133Z,1.55
2023-04-24T00:42:07.442Z,0.98
2023-04-24T00:44:35.561Z,1.40
2023-04-24T00:47:02.002Z,1.23
2023-04-24T00:49:28.410Z,1.70
2023-04-24T00:51:54.817Z,1.30
2023-04-24T00:54:21.213Z,1.52
2023-04-24T00:56:47.743Z,1.70
2023-04-24T00:59:14.541Z,1.50
2023-04-24T01:01:43.812Z,1.33
2023-04-24T01:04:11.079Z,1.20
2023-04-24T01:06:39.895Z,1.80
2023-04-24T01:09:06.765Z,1.50
2023-04-24T01:11:33.119Z,1.48
2023-04-24T01:13:59.875Z,1.80
2023-04-24T01:16:26.986Z,2.13
2023-04-24T01:18:53.517Z,1.23
2023-04-24T01:21:22.070Z,1.63
2023-04-24T01:23:48.500Z,1.58
2023-04-24T01:26:18.164Z,1.60
2023-04-24T01:28:44.544Z,1.65
2023-04-24T01:31:10.949Z,2.10
2023-04-24T01:33:37.376Z,2.03
2023-04-24T01:36:04.086Z,1.73
2023-04-24T01:38:30.482Z,1.95
2023-04-24T01:40:57.030Z,1.92
2023-04-24T01:43:23.492Z,1.70
2023-04-24T01:45:49.840Z,2.25
2023-04-24T01:48:16.281Z,1.60
2023-04-24T01:50:42.693Z,1.50
2023-04-24T01:53:09.466Z,2.00
2023-04-24T01:55:35.810Z,1.98
2023-04-24T01:58:03.107Z,2.20
2023-04-24T02:00:29.585Z,2.00
2023-04-24T02:02:56.103Z,2.70
2023-04-24T02:05:22.673Z,2.20
2023-04-24T02:07:49.074Z,2.45
2023-04-24T02:10:15.476Z,2.50
2023-04-24T02:12:41.852Z,3.17
2023-04-24T02:15:08.441Z,3.63
2023-04-24T02:17:34.870Z,2.95
2023-04-24T02:20:01.354Z,2.83
2023-04-24T02:22:27.725Z,2.78
2023-04-24T02:24:54.109Z,3.10
2023-04-24T02:27:20.587Z,2.88
2023-04-24T02:29:46.934Z,3.17
2023-04-24T02:32:13.599Z,3.00
2023-04-24T02:34:40.151Z,3.00
2023-04-24T02:37:06.516Z,3.00
2023-04-24T02:39:32.896Z,2.88
2023-04-24T02:41:59.291Z,4.05
2023-04-24T02:44:25.740Z,3.63
2023-04-24T02:46:52.474Z,4.97
2023-04-24T02:49:18.842Z,4.70
2023-04-24T02:51:45.227Z,4.72
2023-04-24T02:54:11.878Z,6.28
2023-04-24T02:56:38.415Z,5.72
2023-04-24T02:59:04.792Z,7.00
2023-04-24T03:01:31.648Z,6.45
2023-04-24T03:03:58.204Z,6.18
2023-04-24T03:06:24.762Z,7.10
2023-04-24T03:08:51.164Z,6.82
2023-04-24T03:11:17.531Z,7.75
2023-04-24T03:13:43.889Z,7.30
2023-04-24T03:16:10.334Z,8.13
2023-04-24T03:18:36.727Z,8.43
2023-04-24T03:21:04.370Z,8.02
2023-04-24T03:23:30.780Z,7.95
2023-04-24T03:25:57.149Z,8.60
2023-04-24T03:28:23.529Z,8.85
2023-04-24T03:30:49.897Z,9.00
2023-04-24T03:33:16.441Z,8.27
2023-04-24T03:35:42.927Z,8.27
2023-04-24T03:38:09.513Z,9.30
2023-04-24T03:40:36.673Z,9.43
2023-04-24T03:43:03.314Z,9.07
2023-04-24T03:45:29.662Z,9.45
2023-04-24T03:47:56.080Z,8.82
2023-04-24T03:50:22.587Z,10.13
2023-04-24T03:52:48.958Z,9.18
2023-04-24T03:55:15.584Z,9.48
2023-04-24T03:57:42.116Z,9.60
2023-04-24T04:00:09.844Z,8.75
2023-04-24T04:02:36.332Z,10.20
2023-04-24T04:05:03.171Z,10.50
2023-04-24T04:07:30.893Z,10.43
2023-04-24T04:09:57.254Z,10.60
2023-04-24T04:12:23.690Z,9.98
2023-04-24T04:14:50.051Z,11.27
2023-04-24T04:17:16.424Z,11.70
2023-04-24T04:19:43.183Z,11.70
2023-04-24T04:22:09.776Z,12.02
2023-04-24T04:24:38.826Z,12.70
2023-04-24T04:27:06.294Z,11.98
2023-04-24T04:29:32.651Z,11.68
2023-04-24T04:31:59.664Z,12.30
2023-04-24T04:34:26.045Z,11.85
2023-04-24T04:36:52.532Z,12.82
2023-04-24T04:39:19.533Z,11.13
2023-04-24T04:41:49.720Z,12.57
2023-04-24T04:44:16.096Z,11.50
2023-04-24T04:46:43.028Z,11.52
2023-04-24T04:49:09.521Z,12.75
2023-04-24T04:51:35.877Z,11.90
2023-04-24T04:54:02.359Z,12.00
2023-04-24T04:56:28.759Z,12.95
2023-04-24T04:58:55.180Z,14.57
2023-04-24T05:01:22.270Z,14.45
2023-04-24T05:03:48.873Z,14.15
2023-04-24T05:06:16.047Z,14.18
2023-04-24T05:08:42.438Z,13.75
2023-04-24T05:11:08.902Z,14.07
2023-04-24T05:13:39.901Z,12.95
2023-04-24T05:16:07.586Z,11.82
2023-04-24T05:18:34.087Z,14.55
2023-04-24T05:21:00.917Z,13.43
2023-04-24T05:23:27.290Z,12.68
2023-04-24T05:25:53.660Z,13.02
2023-04-24T05:28:20.689Z,12.68
2023-04-24T05:30:47.041Z,12.93
2023-04-24T05:33:14.910Z,12.27
2023-04-24T05:35:46.495Z,12.35
2023-04-24T05:38:13.654Z,14.15
2023-04-24T05:40:40.575Z,11.55
2023-04-24T05:43:06.950Z,10.30
2023-04-24T05:45:33.326Z,11.38
2023-04-24T05:47:59.795Z,11.00
2023-04-24T05:50:26.194Z,11.40
2023-04-24T05:52:52.565Z,10.85
2023-04-24T05:55:19.386Z,10.40
2023-04-24T05:57:45.828Z,10.15
2023-04-24T06:00:13.084Z,9.85
2023-04-24T06:02:39.907Z,8.27
2023-04-24T06:05:06.775Z,8.65
2023-04-24T06:07:33.366Z,9.48
2023-04-24T06:09:59.718Z,9.48
2023-04-24T06:12:26.909Z,8.88
2023-04-24T06:14:53.302Z,9.75
2023-04-24T06:17:19.730Z,10.02
2023-04-24T06:19:46.277Z,11.57
2023-04-24T06:22:12.785Z,10.48
2023-04-24T06:24:40.985Z,10.02
2023-04-24T06:27:07.544Z,11.52
2023-04-24T06:29:34.516Z,11.48
2023-04-24T06:32:02.049Z,10.73
2023-04-24T06:34:28.514Z,10.35
2023-04-24T06:36:55.888Z,10.85
2023-04-24T06:39:22.276Z,11.10
2023-04-24T06:41:48.654Z,9.15
2023-04-24T06:44:15.692Z,9.27
2023-04-24T06:46:42.436Z,9.88
2023-04-24T06:49:08.821Z,8.68
2023-04-24T06:51:35.382Z,7.57
2023-04-24T06:54:02.180Z,9.05
2023-04-24T06:56:30.428Z,7.80
2023-04-24T06:58:56.911Z,7.40
2023-04-24T07:01:23.374Z,8.30
2023-04-24T07:03:49.923Z,7.25
2023-04-24T07:06:17.698Z,6.82
2023-04-24T07:08:44.526Z,6.70
2023-04-24T07:11:10.897Z,6.75
2023-04-24T07:13:37.296Z,6.88
2023-04-24T07:16:04.082Z,7.15
2023-04-24T07:18:30.568Z,6.82
2023-04-24T07:20:57.672Z,6.40
2023-04-24T07:23:24.073Z,6.30
2023-04-24T07:25:50.521Z,6.82
2023-04-24T07:28:18.777Z,6.60
2023-04-24T07:30:45.207Z,6.47
2023-04-24T07:33:14.019Z,6.68
2023-04-24T07:35:40.548Z,7.05
2023-04-24T07:38:06.963Z,7.30
2023-04-24T07:40:33.334Z,6.72
2023-04-24T07:43:00.158Z,5.80
2023-04-24T07:45:28.873Z,5.40
2023-04-24T07:47:55.762Z,5.55
2023-04-24T07:50:22.864Z,5.18
2023-04-24T07:52:49.317Z,4.80
2023-04-24T07:55:15.711Z,4.20
2023-04-24T07:57:42.152Z,4.82
2023-04-24T08:00:08.957Z,4.13
2023-04-24T08:02:35.526Z,3.75
2023-04-24T08:05:02.083Z,3.45
2023-04-24T08:07:28.493Z,3.63
2023-04-24T08:09:54.919Z,3.88
2023-04-24T08:12:21.357Z,4.00
2023-04-24T08:14:47.739Z,4.82
2023-04-24T08:17:14.114Z,4.40
2023-04-24T08:19:48.442Z,3.75
2023-04-24T08:22:16.246Z,3.88
2023-04-24T08:24:42.774Z,3.65
2023-04-24T08:27:09.691Z,2.63
2023-04-24T08:29:36.045Z,2.40
2023-04-24T08:32:02.713Z,1.85
2023-04-24T08:34:29.423Z,1.60
2023-04-24T08:36:55.947Z,1.38
2023-04-24T08:39:22.298Z,0.80
2023-04-24T08:41:49.372Z,1.55
2023-04-24T08:44:17.099Z,1.10
2023-04-24T08:46:48.942Z,0.95
2023-04-24T08:49:17.298Z,0.93
2023-04-24T08:51:43.672Z,0.90
2023-04-24T08:54:10.116Z,0.93
2023-04-24T08:56:40.064Z,1.00
2023-04-24T08:59:07.330Z,1.50
2023-04-24T09:01:37.059Z,0.93
2023-04-24T09:04:04.877Z,1.00
2023-04-24T09:06:33.127Z,1.25
2023-04-24T09:09:01.739Z,1.40
2023-04-24T09:11:28.634Z,1.25
2023-04-24T09:13:55.918Z,1.30
2023-04-24T09:16:24.070Z,1.13
2023-04-24T09:18:50.816Z,1.25
2023-04-24T09:21:17.332Z,1.27
2023-04-24T09:23:43.801Z,1.23
2023-04-24T09:26:10.876Z,1.60
2023-04-24T09:28:39.026Z,1.30
2023-04-24T09:31:09.871Z,2.00
2023-04-24T09:33:36.872Z,2.28
2023-04-24T09:36:03.891Z,1.73
2023-04-24T09:38:37.814Z,2.28
2023-04-24T09:41:06.632Z,2.92
2023-04-24T09:43:33.774Z,2.80
2023-04-24T09:46:05.704Z,3.30
2023-04-24T09:50:59.832Z,3.30
2023-04-24T09:53:27.207Z,3.47
2023-04-24T09:55:54.068Z,3.63
2023-04-24T09:58:29.943Z,6.05
2023-04-24T10:00:57.659Z,5.10
2023-04-24T10:03:28.006Z,4.90
2023-04-24T10:05:54.890Z,4.93
2023-04-24T10:08:21.667Z,5.45
2023-04-24T10:10:48.064Z,4.82
2023-04-24T10:13:16.270Z,4.72
2023-04-24T10:15:43.461Z,3.13
2023-04-24T10:18:11.027Z,2.42
2023-04-24T10:20:39.113Z,3.20
2023-04-24T10:23:05.934Z,3.40
2023-04-24T10:25:34.759Z,2.95
2023-04-24T10:28:02.408Z,3.10
2023-04-24T10:30:30.677Z,3.60
2023-04-24T10:32:57.271Z,3.42
2023-04-24T10:35:27.528Z,2.42
2023-04-24T10:38:06.780Z,3.83
2023-04-24T10:40:34.577Z,4.28
2023-04-24T10:43:04.189Z,3.50
2023-04-24T10:45:30.552Z,3.05
2023-04-24T10:48:06.189Z,2.65
2023-04-24T10:50:54.211Z,3.97
2023-04-24T10:53:27.632Z,4.15
2023-04-24T10:56:06.810Z,5.18
2023-04-24T10:58:39.337Z,4.97
2023-04-24T11:01:05.777Z,4.60
2023-04-24T11:03:35.633Z,5.82
2023-04-24T11:06:07.365Z,6.07
2023-04-24T11:08:43.602Z,5.78
2023-04-24T11:11:17.785Z,6.38
2023-04-24T11:13:56.352Z,6.70
2023-04-24T11:16:30.074Z,7.07
2023-04-24T11:19:15.725Z,5.63
2023-04-24T11:22:01.268Z,7.97
2023-04-24T11:24:33.384Z,8.07
2023-04-24T11:27:03.591Z,7.10
2023-04-24T11:29:58.599Z,7.65
2023-04-24T11:32:35.314Z,4.90
2023-04-24T11:35:24.165Z,7.38
2023-04-24T11:40:23.843Z,7.47
2023-04-24T11:42:51.861Z,7.95
2023-04-24T11:45:22.984Z,7.85
2023-04-24T11:47:49.903Z,8.25
2023-04-24T11:50:18.470Z,10.00
2023-04-24T11:52:47.011Z,8.63
2023-04-24T11:55:15.999Z,9.90
2023-04-24T11:57:47.242Z,8.90
2023-04-24T12:00:19.937Z,9.00
2023-04-24T12:02:46.964Z,8.45
2023-04-24T12:05:28.025Z,8.77
2023-04-24T12:07:54.925Z,8.73
2023-04-24T12:10:22.267Z,8.48
2023-04-24T12:12:51.250Z,8.93
2023-04-24T12:15:18.756Z,7.32
2023-04-24T12:17:45.553Z,7.90
2023-04-24T12:20:12.730Z,6.05
2023-04-24T12:22:50.758Z,7.78
2023-04-24T12:25:19.166Z,8.75
2023-04-24T12:27:56.173Z,8.20
2023-04-24T12:30:29.157Z,9.27
2023-04-24T12:32:56.038Z,10.27
2023-04-24T12:35:24.169Z,8.68
2023-04-24T12:37:50.969Z,6.85
2023-04-24T12:40:18.618Z,4.53
2023-04-24T12:42:49.734Z,5.10
2023-04-24T12:45:17.647Z,5.20
2023-04-24T12:47:44.938Z,4.65
2023-04-24T12:50:13.397Z,5.03
2023-04-24T12:52:40.401Z,4.72
2023-04-24T12:55:10.187Z,5.25
2023-04-24T12:57:38.478Z,4.50
2023-04-24T13:00:06.697Z,4.00
2023-04-24T13:02:34.379Z,4.75
2023-04-24T13:05:01.160Z,5.70
2023-04-24T13:07:27.989Z,4.82
2023-04-24T13:09:55.882Z,4.60
2023-04-24T13:12:22.330Z,5.63
2023-04-24T13:14:48.699Z,4.88
2023-04-24T13:17:15.558Z,4.57
2023-04-24T13:19:43.469Z,3.60
2023-04-24T13:22:11.149Z,3.50
2023-04-24T13:24:39.736Z,2.67
2023-04-24T13:27:06.442Z,3.80
2023-04-24T13:29:32.820Z,3.20
2023-04-24T13:31:59.208Z,3.58
2023-04-24T13:34:26.266Z,4.30
2023-04-24T13:36:54.802Z,4.78
2023-04-24T13:39:22.208Z,3.38
2023-04-24T13:41:51.277Z,4.13
2023-04-24T13:44:18.922Z,4.05
2023-04-24T13:46:46.466Z,2.92
2023-04-24T13:49:16.258Z,2.88
2023-04-24T13:51:43.324Z,2.90
2023-04-24T13:54:09.718Z,2.80
2023-04-24T13:56:36.218Z,2.95
2023-04-24T13:59:03.083Z,3.28
2023-04-24T14:01:29.551Z,3.83
2023-04-24T14:03:56.905Z,3.03
2023-04-24T14:06:24.041Z,3.42
2023-04-24T14:08:51.314Z,3.08
2023-04-24T14:11:18.379Z,3.15
2023-04-24T14:13:45.466Z,3.30
2023-04-24T14:16:12.339Z,3.33
2023-04-24T14:18:38.846Z,3.10
2023-04-24T14:21:06.156Z,3.40
2023-04-24T14:23:32.840Z,4.25
2023-04-24T14:25:59.407Z,3.20
2023-04-24T14:28:27.072Z,3.13
2023-04-24T14:30:53.616Z,3.65
2023-04-24T14:33:20.104Z,3.83
2023-04-24T14:35:46.949Z,3.92
2023-04-24T14:38:13.527Z,3.80
2023-04-24T14:43:10.845Z,4.30
2023-04-24T14:45:38.035Z,4.57
2023-04-24T14:48:04.818Z,4.30
2023-04-24T14:50:31.301Z,3.75
2023-04-24T14:53:02.827Z,4.38
2023-04-24T14:55:29.757Z,3.92
2023-04-24T14:57:56.482Z,4.53
2023-04-24T15:00:24.773Z,4.35
2023-04-24T15:02:51.328Z,2.95
2023-04-24T15:05:18.255Z,3.70
2023-04-24T15:07:47.843Z,4.15
2023-04-24T15:10:14.221Z,2.92
2023-04-24T15:12:40.750Z,6.00
2023-04-24T15:15:07.886Z,5.18
2023-04-24T15:17:34.611Z,4.97
2023-04-24T15:20:01.820Z,5.38
2023-04-24T15:22:28.392Z,4.35
2023-04-24T15:24:54.766Z,5.30
2023-04-24T15:27:21.150Z,4.38
2023-04-24T15:29:47.502Z,4.10
2023-04-24T15:32:13.909Z,4.40
2023-04-24T15:34:40.319Z,3.80
2023-04-24T15:37:06.746Z,3.40
2023-04-24T15:39:33.169Z,2.50
2023-04-24T15:42:01.278Z,3.20
2023-04-24T15:44:27.760Z,3.35
2023-04-24T15:46:54.169Z,3.00
2023-04-24T15:49:20.621Z,2.47
2023-04-24T15:51:47.089Z,2.55
2023-04-24T15:54:13.466Z,2.60
2023-04-24T15:56:39.824Z,2.40
2023-04-24T15:59:06.318Z,2.10
2023-04-24T16:01:33.626Z,1.95
2023-04-24T16:04:00.217Z,1.98
2023-04-24T16:06:27.682Z,2.33
2023-04-24T16:08:55.437Z,2.15
2023-04-24T16:11:23.006Z,2.60
2023-04-24T16:13:49.414Z,1.92
2023-04-24T16:16:15.870Z,1.90
2023-04-24T16:18:42.619Z,2.20
2023-04-24T16:21:09.416Z,1.95
2023-04-24T16:23:36.270Z,1.85
2023-04-24T16:26:02.728Z,2.13
2023-04-24T16:28:29.223Z,2.30
2023-04-24T16:30:55.631Z,1.88
2023-04-24T16:33:22.069Z,2.03
2023-04-24T16:35:48.415Z,2.80
2023-04-24T16:38:14.837Z,1.65
2023-04-24T16:40:42.353Z,1.70
2023-04-24T16:43:08.716Z,1.70
2023-04-24T16:45:35.528Z,1.80
2023-04-24T16:48:01.986Z,1.50
2023-04-24T16:50:28.378Z,1.70
2023-04-24T16:52:54.745Z,1.98
2023-04-24T16:55:21.162Z,1.60
2023-04-24T16:57:48.037Z,1.67
2023-04-24T17:00:14.881Z,2.45
2023-04-24T17:02:41.438Z,2.42
2023-04-24T17:05:08.231Z,2.40
2023-04-24T17:07:34.766Z,2.63
2023-04-24T17:10:01.176Z,2.60
2023-04-24T17:12:27.545Z,2.78
2023-04-24T17:14:53.908Z,2.75
2023-04-24T17:17:22.995Z,2.70
2023-04-24T17:19:51.224Z,3.00
2023-04-24T17:22:17.641Z,2.70
2023-04-24T17:24:44.001Z,2.97
2023-04-24T17:27:14.936Z,3.15
2023-04-24T17:29:42.265Z,3.00
2023-04-24T17:32:08.838Z,3.17
2023-04-24T17:34:35.229Z,3.22
2023-04-24T17:37:02.059Z,2.72
2023-04-24T17:39:28.407Z,3.08
2023-04-24T17:41:54.825Z,2.75
2023-04-24T17:44:21.182Z,2.42
2023-04-24T17:46:47.695Z,3.00
2023-04-24T17:49:14.080Z,2.60
2023-04-24T17:51:40.847Z,2.22
2023-04-24T17:54:07.204Z,1.90
2023-04-24T17:56:33.721Z,1.92
2023-04-24T17:59:00.135Z,2.22
2023-04-24T18:01:28.345Z,2.25
2023-04-24T18:03:55.023Z,2.75
2023-04-24T18:06:21.780Z,2.35
2023-04-24T18:08:48.402Z,2.30
2023-04-24T18:11:14.965Z,2.70
2023-04-24T18:13:41.365Z,3.10
2023-04-24T18:16:07.793Z,4.28
2023-04-24T18:18:34.235Z,2.75
2023-04-24T18:21:00.656Z,3.20
2023-04-24T18:23:27.073Z,3.05
2023-04-24T18:25:53.486Z,3.05
2023-04-24T18:28:19.921Z,3.20
2023-04-24T18:30:47.210Z,4.05
2023-04-24T18:33:13.582Z,3.30
2023-04-24T18:35:40.911Z,3.25
2023-04-24T18:38:07.555Z,3.60
2023-04-24T18:40:33.910Z,3.88
2023-04-24T18:43:00.543Z,3.55
2023-04-24T18:45:26.990Z,3.60
2023-04-24T18:47:53.460Z,3.88
2023-04-24T18:50:19.953Z,4.32
2023-04-24T18:52:46.395Z,3.70
2023-04-24T18:55:12.830Z,4.57
2023-04-24T18:57:39.355Z,4.00
2023-04-24T19:00:06.530Z,3.90
2023-04-24T19:02:34.214Z,4.15
2023-04-24T19:05:00.796Z,3.55
2023-04-24T19:07:27.223Z,4.30
2023-04-24T19:09:53.594Z,4.50
2023-04-24T19:12:22.603Z,4.32
2023-04-24T19:14:49.406Z,5.20
2023-04-24T19:17:22.426Z,5.35
2023-04-24T19:19:48.981Z,5.40
2023-04-24T19:22:15.392Z,4.68
2023-04-24T19:24:41.833Z,4.70
2023-04-24T19:27:08.230Z,5.63
2023-04-24T19:29:34.608Z,5.15
2023-04-24T19:32:01.058Z,5.15
2023-04-24T19:34:27.514Z,5.45
2023-04-24T19:36:53.883Z,4.75
2023-04-24T19:39:20.331Z,6.18
2023-04-24T19:41:46.793Z,5.40
2023-04-24T19:44:14.584Z,5.50
2023-04-24T19:46:41.080Z,5.25
2023-04-24T19:49:07.637Z,4.93
2023-04-24T19:51:34.069Z,5.32
2023-04-24T19:54:00.872Z,4.97
2023-04-24T19:56:27.298Z,5.10
2023-04-24T19:58:53.946Z,5.68
2023-04-24T20:01:20.938Z,5.25
2023-04-24T20:03:47.598Z,5.40
2023-04-24T20:06:14.246Z,5.18
2023-04-24T20:08:42.622Z,6.22
2023-04-24T20:11:09.084Z,5.57
2023-04-24T20:13:35.749Z,5.72
2023-04-24T20:16:02.474Z,6.28
2023-04-24T20:18:29.298Z,6.20
2023-04-24T20:20:59.431Z,5.25
2023-04-24T20:23:26.559Z,5.80
2023-04-24T20:25:58.102Z,6.38
2023-04-24T20:28:26.455Z,5.43
2023-04-24T20:30:53.096Z,6.07
2023-04-24T20:33:20.408Z,5.97
2023-04-24T20:35:46.966Z,6.15
2023-04-24T20:38:14.030Z,5.82
2023-04-24T20:40:53.773Z,6.43
2023-04-24T20:43:29.642Z,5.57
2023-04-24T20:45:57.787Z,5.38
2023-04-24T20:48:24.626Z,5.32
2023-04-24T20:50:53.473Z,6.03
2023-04-24T20:53:21.164Z,5.28
2023-04-24T20:55:48.066Z,5.70
2023-04-24T20:58:16.107Z,5.43
2023-04-24T21:00:42.842Z,5.65
2023-04-24T21:03:09.560Z,5.63
2023-04-24T21:05:36.025Z,6.25
2023-04-24T21:08:02.638Z,5.15
2023-04-24T21:10:29.005Z,6.25
2023-04-24T21:12:55.482Z,6.30
2023-04-24T21:15:21.899Z,4.90
2023-04-24T21:17:48.439Z,6.25
2023-04-24T21:20:14.846Z,6.75
2023-04-24T21:22:41.335Z,5.32
2023-04-24T21:25:08.513Z,6.03
2023-04-24T21:27:35.804Z,5.57
2023-04-24T21:30:02.354Z,5.85
2023-04-24T21:32:28.800Z,6.90
2023-04-24T21:34:55.905Z,6.15
2023-04-24T21:37:22.278Z,5.93
2023-04-24T21:39:48.653Z,5.30
2023-04-24T21:42:15.281Z,6.38
2023-04-24T21:44:41.653Z,6.70
2023-04-24T21:47:08.046Z,6.72
2023-04-24T21:49:34.424Z,6.95
2023-04-24T21:52:00.816Z,5.80
2023-04-24T21:54:27.203Z,6.82
2023-04-24T21:56:53.584Z,5.93
2023-04-24T21:59:20.009Z,5.30
2023-04-24T22:01:46.383Z,6.25
2023-04-24T22:04:13.097Z,6.30
2023-04-24T22:06:39.604Z,5.47
2023-04-24T22:09:07.499Z,5.68
2023-04-24T22:11:33.954Z,6.93
2023-04-24T22:14:00.367Z,7.45
2023-04-24T22:16:28.367Z,6.38
2023-04-24T22:18:56.050Z,5.72
2023-04-24T22:21:22.741Z,6.30
2023-04-24T22:23:49.568Z,5.88
2023-04-24T22:26:16.069Z,5.65
2023-04-24T22:28:42.468Z,6.15
2023-04-24T22:31:09.119Z,6.00
2023-04-24T22:33:35.552Z,6.13
2023-04-24T22:36:01.910Z,6.13
2023-04-24T22:38:28.317Z,6.47
2023-04-24T22:40:54.780Z,6.40
2023-04-24T22:43:21.229Z,6.15
2023-04-24T22:45:47.622Z,6.13
2023-04-24T22:48:14.000Z,6.40
2023-04-24T22:50:40.606Z,6.20
2023-04-24T22:53:06.961Z,6.78
2023-04-24T22:55:33.383Z,6.00
2023-04-24T22:58:00.699Z,6.30
2023-04-24T23:00:27.123Z,6.82
2023-04-24T23:02:53.617Z,6.20
2023-04-24T23:05:22.004Z,7.32
2023-04-24T23:07:48.433Z,8.20
2023-04-24T23:10:14.797Z,8.68
2023-04-24T23:12:41.240Z,7.65
2023-04-24T23:15:08.504Z,8.90
2023-04-24T23:17:34.899Z,7.95
2023-04-24T23:20:01.610Z,9.50
2023-04-24T23:22:28.075Z,8.30
2023-04-24T23:24:54.413Z,9.10
2023-04-24T23:27:20.853Z,8.50
2023-04-24T23:29:47.189Z,8.77
2023-04-24T23:32:13.572Z,9.48
2023-04-24T23:34:40.955Z,9.35
2023-04-24T23:37:07.429Z,8.63
2023-04-24T23:39:33.877Z,9.55
2023-04-24T23:42:02.597Z,9.75
2023-04-24T23:44:30.300Z,9.55
2023-04-24T23:46:59.687Z,9.20
2023-04-24T23:49:27.149Z,8.90
2023-04-24T23:51:53.569Z,8.50
2023-04-24T23:54:20.092Z,8.77
2023-04-24T23:56:47.828Z,9.02
2023-04-24T23:59:14.680Z,9.40
